sensor_id;sensor_type;location;lat;lon;timestamp;P1;durP1;ratioP1;P2;durP2;ratioP2
48263;SDS011;34086;51.076;13.722;2022-11-20T00:00:10;67.35;;;36.58;;
48263;SDS011;34086;51.076;13.722;2022-11-20T00:01:16;71.95;;;36.80;;
48263;SDS011;34086;51.076;13.722;2022-11-20T00:02:18;70.38;;;35.97;;
48263;SDS011;34086;51.076;13.722;2022-11-20T00:03:19;67.22;;;36.03;;
48263;SDS011;34086;51.076;13.722;2022-11-20T00:04:20;70.30;;;36.20;;
48263;SDS011;34086;51.076;13.722;2022-11-20T00:05:20;68.43;;;35.35;;
48263;SDS011;34086;51.076;13.722;2022-11-20T00:06:22;76.45;;;37.10;;
48263;SDS011;34086;51.076;13.722;2022-11-20T00:07:23;70.50;;;37.03;;
48263;SDS011;34086;51.076;13.722;2022-11-20T00:08:24;71.55;;;38.60;;
48263;SDS011;34086;51.076;13.722;2022-11-20T00:09:25;69.78;;;37.20;;
48263;SDS011;34086;51.076;13.722;2022-11-20T00:10:25;70.55;;;37.33;;
48263;SDS011;34086;51.076;13.722;2022-11-20T00:11:27;73.75;;;36.97;;
48263;SDS011;34086;51.076;13.722;2022-11-20T00:12:28;75.28;;;38.00;;
48263;SDS011;34086;51.076;13.722;2022-11-20T00:13:29;73.53;;;38.33;;
48263;SDS011;34086;51.076;13.722;2022-11-20T00:14:30;73.35;;;37.85;;
48263;SDS011;34086;51.076;13.722;2022-11-20T00:15:31;69.68;;;35.60;;
48263;SDS011;34086;51.076;13.722;2022-11-20T00:16:32;68.63;;;35.85;;
48263;SDS011;34086;51.076;13.722;2022-11-20T00:17:33;71.43;;;35.10;;
48263;SDS011;34086;51.076;13.722;2022-11-20T00:18:34;70.28;;;35.55;;
48263;SDS011;34086;51.076;13.722;2022-11-20T00:19:35;64.70;;;33.95;;
48263;SDS011;34086;51.076;13.722;2022-11-20T00:20:36;66.13;;;33.10;;
48263;SDS011;34086;51.076;13.722;2022-11-20T00:21:37;64.60;;;33.08;;
48263;SDS011;34086;51.076;13.722;2022-11-20T00:22:37;61.58;;;31.08;;
48263;SDS011;34086;51.076;13.722;2022-11-20T00:23:38;62.13;;;31.10;;
48263;SDS011;34086;51.076;13.722;2022-11-20T00:24:39;61.20;;;30.48;;
48263;SDS011;34086;51.076;13.722;2022-11-20T00:25:39;59.47;;;29.38;;
48263;SDS011;34086;51.076;13.722;2022-11-20T00:26:40;57.15;;;29.45;;
48263;SDS011;34086;51.076;13.722;2022-11-20T00:27:42;56.33;;;28.27;;
48263;SDS011;34086;51.076;13.722;2022-11-20T00:28:43;57.85;;;28.17;;
48263;SDS011;34086;51.076;13.722;2022-11-20T00:29:44;55.83;;;28.20;;
48263;SDS011;34086;51.076;13.722;2022-11-20T00:30:45;56.60;;;28.50;;
48263;SDS011;34086;51.076;13.722;2022-11-20T00:31:46;59.72;;;30.42;;
48263;SDS011;34086;51.076;13.722;2022-11-20T00:32:46;58.33;;;28.98;;
48263;SDS011;34086;51.076;13.722;2022-11-20T00:33:47;55.15;;;28.52;;
48263;SDS011;34086;51.076;13.722;2022-11-20T00:34:48;55.53;;;28.38;;
48263;SDS011;34086;51.076;13.722;2022-11-20T00:35:49;57.88;;;28.73;;
48263;SDS011;34086;51.076;13.722;2022-11-20T00:36:49;55.60;;;28.52;;
48263;SDS011;34086;51.076;13.722;2022-11-20T00:37:50;57.70;;;28.27;;
48263;SDS011;34086;51.076;13.722;2022-11-20T00:38:55;56.17;;;27.75;;
48263;SDS011;34086;51.076;13.722;2022-11-20T00:39:57;54.00;;;27.42;;
48263;SDS011;34086;51.076;13.722;2022-11-20T00:40:58;57.75;;;28.02;;
48263;SDS011;34086;51.076;13.722;2022-11-20T00:42:03;56.65;;;28.85;;
48263;SDS011;34086;51.076;13.722;2022-11-20T00:43:04;56.88;;;28.40;;
48263;SDS011;34086;51.076;13.722;2022-11-20T00:44:04;55.42;;;28.60;;
48263;SDS011;34086;51.076;13.722;2022-11-20T00:45:05;56.03;;;28.35;;
48263;SDS011;34086;51.076;13.722;2022-11-20T00:46:07;55.33;;;28.15;;
48263;SDS011;34086;51.076;13.722;2022-11-20T00:47:09;53.97;;;27.27;;
48263;SDS011;34086;51.076;13.722;2022-11-20T00:48:10;54.17;;;28.08;;
48263;SDS011;34086;51.076;13.722;2022-11-20T00:49:11;52.30;;;27.20;;
48263;SDS011;34086;51.076;13.722;2022-11-20T00:50:11;53.78;;;27.02;;
48263;SDS011;34086;51.076;13.722;2022-11-20T00:51:16;57.13;;;27.85;;
48263;SDS011;34086;51.076;13.722;2022-11-20T00:52:19;50.17;;;25.90;;
48263;SDS011;34086;51.076;13.722;2022-11-20T00:53:20;51.35;;;26.45;;
48263;SDS011;34086;51.076;13.722;2022-11-20T00:54:21;58.78;;;27.92;;
48263;SDS011;34086;51.076;13.722;2022-11-20T00:55:22;56.47;;;28.20;;
48263;SDS011;34086;51.076;13.722;2022-11-20T00:56:22;51.60;;;26.65;;
48263;SDS011;34086;51.076;13.722;2022-11-20T00:57:24;54.03;;;28.08;;
48263;SDS011;34086;51.076;13.722;2022-11-20T00:58:27;55.70;;;27.67;;
48263;SDS011;34086;51.076;13.722;2022-11-20T00:59:30;53.67;;;26.55;;
48263;SDS011;34086;51.076;13.722;2022-11-20T01:00:31;55.35;;;27.15;;
48263;SDS011;34086;51.076;13.722;2022-11-20T01:01:31;55.55;;;27.77;;
48263;SDS011;34086;51.076;13.722;2022-11-20T01:02:32;56.40;;;28.15;;
48263;SDS011;34086;51.076;13.722;2022-11-20T01:03:34;55.05;;;27.50;;
48263;SDS011;34086;51.076;13.722;2022-11-20T01:04:36;55.80;;;27.48;;
48263;SDS011;34086;51.076;13.722;2022-11-20T01:05:37;53.45;;;27.10;;
48263;SDS011;34086;51.076;13.722;2022-11-20T01:06:38;56.47;;;28.52;;
48263;SDS011;34086;51.076;13.722;2022-11-20T01:07:40;54.58;;;27.00;;
48263;SDS011;34086;51.076;13.722;2022-11-20T01:08:40;55.63;;;28.05;;
48263;SDS011;34086;51.076;13.722;2022-11-20T01:09:41;54.63;;;27.52;;
48263;SDS011;34086;51.076;13.722;2022-11-20T01:10:42;53.22;;;26.67;;
48263;SDS011;34086;51.076;13.722;2022-11-20T01:11:43;56.58;;;28.98;;
48263;SDS011;34086;51.076;13.722;2022-11-20T01:12:44;53.78;;;26.52;;
48263;SDS011;34086;51.076;13.722;2022-11-20T01:15:07;56.78;;;27.67;;
48263;SDS011;34086;51.076;13.722;2022-11-20T01:17:16;56.45;;;27.83;;
48263;SDS011;34086;51.076;13.722;2022-11-20T01:18:16;56.65;;;28.88;;
48263;SDS011;34086;51.076;13.722;2022-11-20T01:19:18;60.92;;;29.33;;
48263;SDS011;34086;51.076;13.722;2022-11-20T01:20:21;58.50;;;29.00;;
48263;SDS011;34086;51.076;13.722;2022-11-20T01:21:23;59.67;;;29.23;;
48263;SDS011;34086;51.076;13.722;2022-11-20T01:22:25;57.95;;;28.70;;
48263;SDS011;34086;51.076;13.722;2022-11-20T01:23:26;59.30;;;29.13;;
48263;SDS011;34086;51.076;13.722;2022-11-20T01:24:27;59.72;;;29.05;;
48263;SDS011;34086;51.076;13.722;2022-11-20T01:25:27;61.78;;;30.30;;
48263;SDS011;34086;51.076;13.722;2022-11-20T01:26:32;58.20;;;28.58;;
48263;SDS011;34086;51.076;13.722;2022-11-20T01:27:35;58.30;;;29.13;;
48263;SDS011;34086;51.076;13.722;2022-11-20T01:28:36;60.42;;;29.77;;
48263;SDS011;34086;51.076;13.722;2022-11-20T01:29:39;58.53;;;28.65;;
48263;SDS011;34086;51.076;13.722;2022-11-20T01:30:39;63.13;;;30.13;;
48263;SDS011;34086;51.076;13.722;2022-11-20T01:31:40;59.97;;;29.08;;
48263;SDS011;34086;51.076;13.722;2022-11-20T01:32:41;57.60;;;28.42;;
48263;SDS011;34086;51.076;13.722;2022-11-20T01:33:42;55.85;;;27.48;;
48263;SDS011;34086;51.076;13.722;2022-11-20T01:34:44;55.80;;;27.10;;
48263;SDS011;34086;51.076;13.722;2022-11-20T01:35:45;61.75;;;29.60;;
48263;SDS011;34086;51.076;13.722;2022-11-20T01:36:46;58.75;;;27.80;;
48263;SDS011;34086;51.076;13.722;2022-11-20T01:37:47;55.85;;;27.95;;
48263;SDS011;34086;51.076;13.722;2022-11-20T01:38:50;57.22;;;27.80;;
48263;SDS011;34086;51.076;13.722;2022-11-20T01:39:55;61.30;;;29.10;;
48263;SDS011;34086;51.076;13.722;2022-11-20T01:40:55;60.20;;;29.13;;
48263;SDS011;34086;51.076;13.722;2022-11-20T01:41:56;56.90;;;28.27;;
48263;SDS011;34086;51.076;13.722;2022-11-20T01:43:18;57.45;;;27.80;;
48263;SDS011;34086;51.076;13.722;2022-11-20T01:44:42;60.15;;;27.85;;
48263;SDS011;34086;51.076;13.722;2022-11-20T01:48:36;63.25;;;28.90;;
48263;SDS011;34086;51.076;13.722;2022-11-20T01:49:43;60.63;;;28.13;;
48263;SDS011;34086;51.076;13.722;2022-11-20T01:50:52;61.67;;;28.92;;
48263;SDS011;34086;51.076;13.722;2022-11-20T01:51:58;58.17;;;28.52;;
48263;SDS011;34086;51.076;13.722;2022-11-20T01:53:02;60.97;;;29.23;;
48263;SDS011;34086;51.076;13.722;2022-11-20T01:54:08;60.75;;;28.17;;
48263;SDS011;34086;51.076;13.722;2022-11-20T01:55:15;59.97;;;29.13;;
48263;SDS011;34086;51.076;13.722;2022-11-20T01:56:21;60.00;;;28.63;;
48263;SDS011;34086;51.076;13.722;2022-11-20T01:57:23;58.63;;;28.67;;
48263;SDS011;34086;51.076;13.722;2022-11-20T01:58:32;53.72;;;27.42;;
48263;SDS011;34086;51.076;13.722;2022-11-20T01:59:35;59.70;;;28.27;;
48263;SDS011;34086;51.076;13.722;2022-11-20T02:00:39;55.80;;;28.17;;
48263;SDS011;34086;51.076;13.722;2022-11-20T02:01:40;60.33;;;29.23;;
48263;SDS011;34086;51.076;13.722;2022-11-20T02:02:43;58.47;;;29.10;;
48263;SDS011;34086;51.076;13.722;2022-11-20T02:03:50;60.55;;;28.42;;
48263;SDS011;34086;51.076;13.722;2022-11-20T02:04:51;58.88;;;27.83;;
48263;SDS011;34086;51.076;13.722;2022-11-20T02:07:15;58.63;;;28.45;;
48263;SDS011;34086;51.076;13.722;2022-11-20T02:08:16;57.80;;;27.90;;
48263;SDS011;34086;51.076;13.722;2022-11-20T02:09:18;57.10;;;27.77;;
48263;SDS011;34086;51.076;13.722;2022-11-20T02:10:18;59.78;;;28.63;;
48263;SDS011;34086;51.076;13.722;2022-11-20T02:11:19;56.70;;;27.58;;
48263;SDS011;34086;51.076;13.722;2022-11-20T02:12:20;58.47;;;28.25;;
48263;SDS011;34086;51.076;13.722;2022-11-20T02:13:39;61.17;;;28.30;;
48263;SDS011;34086;51.076;13.722;2022-11-20T02:14:43;58.20;;;28.52;;
48263;SDS011;34086;51.076;13.722;2022-11-20T02:15:44;56.17;;;26.65;;
48263;SDS011;34086;51.076;13.722;2022-11-20T02:16:46;60.42;;;28.52;;
48263;SDS011;34086;51.076;13.722;2022-11-20T02:17:48;62.50;;;29.02;;
48263;SDS011;34086;51.076;13.722;2022-11-20T02:18:49;56.72;;;27.70;;
48263;SDS011;34086;51.076;13.722;2022-11-20T02:19:50;56.75;;;27.27;;
48263;SDS011;34086;51.076;13.722;2022-11-20T02:20:57;61.00;;;28.00;;
48263;SDS011;34086;51.076;13.722;2022-11-20T02:23:20;58.63;;;28.33;;
48263;SDS011;34086;51.076;13.722;2022-11-20T02:24:28;59.35;;;27.77;;
48263;SDS011;34086;51.076;13.722;2022-11-20T02:25:29;56.78;;;27.42;;
48263;SDS011;34086;51.076;13.722;2022-11-20T02:27:51;57.35;;;28.10;;
48263;SDS011;34086;51.076;13.722;2022-11-20T02:28:52;58.58;;;27.70;;
48263;SDS011;34086;51.076;13.722;2022-11-20T02:29:58;55.88;;;27.27;;
48263;SDS011;34086;51.076;13.722;2022-11-20T02:31:02;56.05;;;26.67;;
48263;SDS011;34086;51.076;13.722;2022-11-20T02:32:03;53.55;;;26.95;;
48263;SDS011;34086;51.076;13.722;2022-11-20T02:33:04;53.20;;;25.83;;
48263;SDS011;34086;51.076;13.722;2022-11-20T02:34:04;54.28;;;26.45;;
48263;SDS011;34086;51.076;13.722;2022-11-20T02:35:06;56.95;;;27.42;;
48263;SDS011;34086;51.076;13.722;2022-11-20T02:36:30;52.92;;;25.55;;
48263;SDS011;34086;51.076;13.722;2022-11-20T02:37:34;55.45;;;26.92;;
48263;SDS011;34086;51.076;13.722;2022-11-20T02:38:38;56.30;;;27.42;;
48263;SDS011;34086;51.076;13.722;2022-11-20T02:39:39;57.47;;;26.63;;
48263;SDS011;34086;51.076;13.722;2022-11-20T02:40:40;52.63;;;26.33;;
48263;SDS011;34086;51.076;13.722;2022-11-20T02:41:41;56.05;;;27.73;;
48263;SDS011;34086;51.076;13.722;2022-11-20T02:42:42;53.28;;;26.20;;
48263;SDS011;34086;51.076;13.722;2022-11-20T02:43:42;55.38;;;27.10;;
48263;SDS011;34086;51.076;13.722;2022-11-20T02:44:43;54.65;;;27.00;;
48263;SDS011;34086;51.076;13.722;2022-11-20T02:45:44;55.13;;;27.33;;
48263;SDS011;34086;51.076;13.722;2022-11-20T02:46:45;54.53;;;26.80;;
48263;SDS011;34086;51.076;13.722;2022-11-20T02:47:46;53.38;;;26.48;;
48263;SDS011;34086;51.076;13.722;2022-11-20T02:48:46;56.13;;;28.17;;
48263;SDS011;34086;51.076;13.722;2022-11-20T02:49:47;53.17;;;26.70;;
48263;SDS011;34086;51.076;13.722;2022-11-20T02:50:48;53.33;;;26.58;;
48263;SDS011;34086;51.076;13.722;2022-11-20T02:51:48;56.13;;;27.20;;
48263;SDS011;34086;51.076;13.722;2022-11-20T02:52:49;54.97;;;26.42;;
48263;SDS011;34086;51.076;13.722;2022-11-20T02:53:50;55.20;;;27.63;;
48263;SDS011;34086;51.076;13.722;2022-11-20T02:54:51;54.13;;;27.23;;
48263;SDS011;34086;51.076;13.722;2022-11-20T02:55:52;54.72;;;27.38;;
48263;SDS011;34086;51.076;13.722;2022-11-20T02:56:52;58.17;;;28.15;;
48263;SDS011;34086;51.076;13.722;2022-11-20T02:57:53;59.33;;;29.30;;
48263;SDS011;34086;51.076;13.722;2022-11-20T02:58:54;55.92;;;27.77;;
48263;SDS011;34086;51.076;13.722;2022-11-20T02:59:55;61.90;;;29.95;;
48263;SDS011;34086;51.076;13.722;2022-11-20T03:00:56;57.42;;;28.88;;
48263;SDS011;34086;51.076;13.722;2022-11-20T03:01:57;61.58;;;30.30;;
48263;SDS011;34086;51.076;13.722;2022-11-20T03:02:57;63.25;;;31.05;;
48263;SDS011;34086;51.076;13.722;2022-11-20T03:03:58;63.85;;;30.92;;
48263;SDS011;34086;51.076;13.722;2022-11-20T03:04:59;65.25;;;30.45;;
48263;SDS011;34086;51.076;13.722;2022-11-20T03:06:00;60.35;;;29.35;;
48263;SDS011;34086;51.076;13.722;2022-11-20T03:07:00;59.38;;;28.75;;
48263;SDS011;34086;51.076;13.722;2022-11-20T03:08:01;59.85;;;29.52;;
48263;SDS011;34086;51.076;13.722;2022-11-20T03:09:02;58.20;;;29.10;;
48263;SDS011;34086;51.076;13.722;2022-11-20T03:10:03;59.85;;;29.77;;
48263;SDS011;34086;51.076;13.722;2022-11-20T03:11:05;61.60;;;29.75;;
48263;SDS011;34086;51.076;13.722;2022-11-20T03:12:07;60.65;;;29.88;;
48263;SDS011;34086;51.076;13.722;2022-11-20T03:13:08;59.38;;;28.75;;
48263;SDS011;34086;51.076;13.722;2022-11-20T03:14:08;60.45;;;29.08;;
48263;SDS011;34086;51.076;13.722;2022-11-20T03:15:09;60.20;;;29.50;;
48263;SDS011;34086;51.076;13.722;2022-11-20T03:16:15;61.47;;;29.50;;
48263;SDS011;34086;51.076;13.722;2022-11-20T03:17:18;58.88;;;28.40;;
48263;SDS011;34086;51.076;13.722;2022-11-20T03:18:19;62.03;;;29.02;;
48263;SDS011;34086;51.076;13.722;2022-11-20T03:19:20;61.70;;;30.02;;
48263;SDS011;34086;51.076;13.722;2022-11-20T03:20:21;62.80;;;29.23;;
48263;SDS011;34086;51.076;13.722;2022-11-20T03:21:23;58.15;;;29.13;;
48263;SDS011;34086;51.076;13.722;2022-11-20T03:22:23;61.88;;;29.73;;
48263;SDS011;34086;51.076;13.722;2022-11-20T03:23:24;62.35;;;29.83;;
48263;SDS011;34086;51.076;13.722;2022-11-20T03:24:26;62.83;;;30.13;;
48263;SDS011;34086;51.076;13.722;2022-11-20T03:25:26;69.43;;;31.38;;
48263;SDS011;34086;51.076;13.722;2022-11-20T03:26:27;67.00;;;31.45;;
48263;SDS011;34086;51.076;13.722;2022-11-20T03:27:31;66.93;;;31.75;;
48263;SDS011;34086;51.076;13.722;2022-11-20T03:28:33;67.43;;;30.92;;
48263;SDS011;34086;51.076;13.722;2022-11-20T03:29:34;64.68;;;30.90;;
48263;SDS011;34086;51.076;13.722;2022-11-20T03:30:35;65.18;;;31.50;;
48263;SDS011;34086;51.076;13.722;2022-11-20T03:31:37;62.20;;;30.05;;
48263;SDS011;34086;51.076;13.722;2022-11-20T03:32:42;60.50;;;29.45;;
48263;SDS011;34086;51.076;13.722;2022-11-20T03:33:43;64.78;;;30.23;;
48263;SDS011;34086;51.076;13.722;2022-11-20T03:34:44;62.22;;;29.40;;
48263;SDS011;34086;51.076;13.722;2022-11-20T03:35:45;61.40;;;29.58;;
48263;SDS011;34086;51.076;13.722;2022-11-20T03:36:45;63.53;;;30.77;;
48263;SDS011;34086;51.076;13.722;2022-11-20T03:37:46;61.33;;;29.70;;
48263;SDS011;34086;51.076;13.722;2022-11-20T03:38:47;58.28;;;28.75;;
48263;SDS011;34086;51.076;13.722;2022-11-20T03:39:48;62.22;;;30.23;;
48263;SDS011;34086;51.076;13.722;2022-11-20T03:40:48;61.50;;;29.45;;
48263;SDS011;34086;51.076;13.722;2022-11-20T03:41:49;62.47;;;29.58;;
48263;SDS011;34086;51.076;13.722;2022-11-20T03:42:50;60.22;;;29.33;;
48263;SDS011;34086;51.076;13.722;2022-11-20T03:43:51;58.45;;;28.27;;
48263;SDS011;34086;51.076;13.722;2022-11-20T03:44:57;60.67;;;28.73;;
48263;SDS011;34086;51.076;13.722;2022-11-20T03:45:57;58.22;;;28.50;;
48263;SDS011;34086;51.076;13.722;2022-11-20T03:46:58;55.10;;;27.65;;
48263;SDS011;34086;51.076;13.722;2022-11-20T03:47:59;57.00;;;28.30;;
48263;SDS011;34086;51.076;13.722;2022-11-20T03:48:59;55.78;;;27.90;;
48263;SDS011;34086;51.076;13.722;2022-11-20T03:50:00;54.92;;;27.23;;
48263;SDS011;34086;51.076;13.722;2022-11-20T03:52:09;57.83;;;27.30;;
48263;SDS011;34086;51.076;13.722;2022-11-20T03:53:09;53.10;;;27.00;;
48263;SDS011;34086;51.076;13.722;2022-11-20T03:54:10;57.55;;;27.08;;
48263;SDS011;34086;51.076;13.722;2022-11-20T03:55:11;58.25;;;28.60;;
48263;SDS011;34086;51.076;13.722;2022-11-20T03:56:13;56.33;;;27.25;;
48263;SDS011;34086;51.076;13.722;2022-11-20T03:57:15;58.38;;;28.15;;
48263;SDS011;34086;51.076;13.722;2022-11-20T03:58:15;58.80;;;28.27;;
48263;SDS011;34086;51.076;13.722;2022-11-20T03:59:16;54.30;;;26.08;;
48263;SDS011;34086;51.076;13.722;2022-11-20T04:00:17;54.85;;;27.42;;
48263;SDS011;34086;51.076;13.722;2022-11-20T04:01:19;57.25;;;27.50;;
48263;SDS011;34086;51.076;13.722;2022-11-20T04:02:21;55.40;;;27.13;;
48263;SDS011;34086;51.076;13.722;2022-11-20T04:03:22;58.33;;;28.75;;
48263;SDS011;34086;51.076;13.722;2022-11-20T04:04:23;54.35;;;27.77;;
48263;SDS011;34086;51.076;13.722;2022-11-20T04:05:24;57.72;;;27.85;;
48263;SDS011;34086;51.076;13.722;2022-11-20T04:06:26;56.72;;;27.70;;
48263;SDS011;34086;51.076;13.722;2022-11-20T04:07:31;57.92;;;27.90;;
48263;SDS011;34086;51.076;13.722;2022-11-20T04:08:33;55.13;;;28.02;;
48263;SDS011;34086;51.076;13.722;2022-11-20T04:09:34;55.05;;;27.35;;
48263;SDS011;34086;51.076;13.722;2022-11-20T04:10:34;61.22;;;28.52;;
48263;SDS011;34086;51.076;13.722;2022-11-20T04:11:36;57.80;;;27.67;;
48263;SDS011;34086;51.076;13.722;2022-11-20T04:12:39;56.70;;;27.75;;
48263;SDS011;34086;51.076;13.722;2022-11-20T04:13:40;56.45;;;27.80;;
48263;SDS011;34086;51.076;13.722;2022-11-20T04:14:42;57.47;;;28.40;;
48263;SDS011;34086;51.076;13.722;2022-11-20T04:15:42;54.40;;;27.33;;
48263;SDS011;34086;51.076;13.722;2022-11-20T04:16:43;56.75;;;27.85;;
48263;SDS011;34086;51.076;13.722;2022-11-20T04:17:44;55.40;;;27.77;;
48263;SDS011;34086;51.076;13.722;2022-11-20T04:18:45;59.60;;;28.23;;
48263;SDS011;34086;51.076;13.722;2022-11-20T04:19:46;56.50;;;28.08;;
48263;SDS011;34086;51.076;13.722;2022-11-20T04:20:47;57.63;;;27.67;;
48263;SDS011;34086;51.076;13.722;2022-11-20T04:21:48;56.92;;;27.27;;
48263;SDS011;34086;51.076;13.722;2022-11-20T04:22:49;56.72;;;26.92;;
48263;SDS011;34086;51.076;13.722;2022-11-20T04:23:53;50.88;;;25.65;;
48263;SDS011;34086;51.076;13.722;2022-11-20T04:24:54;54.72;;;26.50;;
48263;SDS011;34086;51.076;13.722;2022-11-20T04:26:00;51.60;;;25.48;;
48263;SDS011;34086;51.076;13.722;2022-11-20T04:27:05;55.95;;;27.00;;
48263;SDS011;34086;51.076;13.722;2022-11-20T04:28:06;57.08;;;27.83;;
48263;SDS011;34086;51.076;13.722;2022-11-20T04:29:09;55.08;;;26.60;;
48263;SDS011;34086;51.076;13.722;2022-11-20T04:30:11;53.13;;;25.95;;
48263;SDS011;34086;51.076;13.722;2022-11-20T04:31:16;52.53;;;25.27;;
48263;SDS011;34086;51.076;13.722;2022-11-20T04:32:19;52.42;;;25.70;;
48263;SDS011;34086;51.076;13.722;2022-11-20T04:33:19;51.55;;;25.27;;
48263;SDS011;34086;51.076;13.722;2022-11-20T04:34:20;53.30;;;26.13;;
48263;SDS011;34086;51.076;13.722;2022-11-20T04:35:21;58.53;;;27.08;;
48263;SDS011;34086;51.076;13.722;2022-11-20T04:36:22;51.75;;;25.90;;
48263;SDS011;34086;51.076;13.722;2022-11-20T04:37:25;54.85;;;27.08;;
48263;SDS011;34086;51.076;13.722;2022-11-20T04:38:26;52.28;;;26.02;;
48263;SDS011;34086;51.076;13.722;2022-11-20T04:39:26;53.17;;;26.63;;
48263;SDS011;34086;51.076;13.722;2022-11-20T04:40:27;56.22;;;26.83;;
48263;SDS011;34086;51.076;13.722;2022-11-20T04:41:29;52.70;;;25.55;;
48263;SDS011;34086;51.076;13.722;2022-11-20T04:42:32;53.22;;;26.02;;
48263;SDS011;34086;51.076;13.722;2022-11-20T04:43:33;52.92;;;25.42;;
48263;SDS011;34086;51.076;13.722;2022-11-20T04:44:34;58.50;;;26.05;;
48263;SDS011;34086;51.076;13.722;2022-11-20T04:45:34;52.60;;;25.50;;
48263;SDS011;34086;51.076;13.722;2022-11-20T04:46:39;54.15;;;25.98;;
48263;SDS011;34086;51.076;13.722;2022-11-20T04:47:41;55.05;;;26.05;;
48263;SDS011;34086;51.076;13.722;2022-11-20T04:48:42;51.05;;;25.02;;
48263;SDS011;34086;51.076;13.722;2022-11-20T04:49:43;53.10;;;25.48;;
48263;SDS011;34086;51.076;13.722;2022-11-20T04:50:43;48.78;;;25.20;;
48263;SDS011;34086;51.076;13.722;2022-11-20T04:51:44;49.88;;;25.35;;
48263;SDS011;34086;51.076;13.722;2022-11-20T04:52:45;51.22;;;25.20;;
48263;SDS011;34086;51.076;13.722;2022-11-20T04:53:46;48.67;;;24.45;;
48263;SDS011;34086;51.076;13.722;2022-11-20T04:54:46;54.05;;;25.88;;
48263;SDS011;34086;51.076;13.722;2022-11-20T04:55:47;51.25;;;25.17;;
48263;SDS011;34086;51.076;13.722;2022-11-20T04:56:48;52.47;;;25.35;;
48263;SDS011;34086;51.076;13.722;2022-11-20T04:57:50;51.33;;;24.45;;
48263;SDS011;34086;51.076;13.722;2022-11-20T04:58:51;53.00;;;24.45;;
48263;SDS011;34086;51.076;13.722;2022-11-20T04:59:52;50.55;;;24.42;;
48263;SDS011;34086;51.076;13.722;2022-11-20T05:00:53;54.67;;;26.25;;
48263;SDS011;34086;51.076;13.722;2022-11-20T05:01:54;51.55;;;24.70;;
48263;SDS011;34086;51.076;13.722;2022-11-20T05:02:54;53.22;;;26.05;;
48263;SDS011;34086;51.076;13.722;2022-11-20T05:03:55;53.42;;;25.13;;
48263;SDS011;34086;51.076;13.722;2022-11-20T05:04:56;55.13;;;25.73;;
48263;SDS011;34086;51.076;13.722;2022-11-20T05:05:59;53.38;;;24.73;;
48263;SDS011;34086;51.076;13.722;2022-11-20T05:07:01;53.55;;;25.73;;
48263;SDS011;34086;51.076;13.722;2022-11-20T05:08:02;53.30;;;25.23;;
48263;SDS011;34086;51.076;13.722;2022-11-20T05:09:03;52.03;;;25.55;;
48263;SDS011;34086;51.076;13.722;2022-11-20T05:10:04;59.63;;;28.35;;
48263;SDS011;34086;51.076;13.722;2022-11-20T05:11:06;75.15;;;36.53;;
48263;SDS011;34086;51.076;13.722;2022-11-20T05:12:08;96.25;;;48.38;;
48263;SDS011;34086;51.076;13.722;2022-11-20T05:13:09;104.10;;;52.28;;
48263;SDS011;34086;51.076;13.722;2022-11-20T05:14:10;109.38;;;53.22;;
48263;SDS011;34086;51.076;13.722;2022-11-20T05:15:10;113.22;;;55.42;;
48263;SDS011;34086;51.076;13.722;2022-11-20T05:16:18;121.47;;;61.15;;
48263;SDS011;34086;51.076;13.722;2022-11-20T05:17:20;111.03;;;54.45;;
48263;SDS011;34086;51.076;13.722;2022-11-20T05:18:21;105.60;;;52.88;;
48263;SDS011;34086;51.076;13.722;2022-11-20T05:19:22;98.47;;;48.33;;
48263;SDS011;34086;51.076;13.722;2022-11-20T05:20:23;83.40;;;41.13;;
48263;SDS011;34086;51.076;13.722;2022-11-20T05:21:24;70.88;;;35.25;;
48263;SDS011;34086;51.076;13.722;2022-11-20T05:22:24;64.10;;;32.17;;
48263;SDS011;34086;51.076;13.722;2022-11-20T05:23:25;63.03;;;29.40;;
48263;SDS011;34086;51.076;13.722;2022-11-20T05:24:26;58.50;;;28.50;;
48263;SDS011;34086;51.076;13.722;2022-11-20T05:25:27;57.70;;;27.77;;
48263;SDS011;34086;51.076;13.722;2022-11-20T05:26:27;56.50;;;26.88;;
48263;SDS011;34086;51.076;13.722;2022-11-20T05:27:28;52.30;;;26.30;;
48263;SDS011;34086;51.076;13.722;2022-11-20T05:28:30;51.22;;;25.73;;
48263;SDS011;34086;51.076;13.722;2022-11-20T05:29:31;50.42;;;25.70;;
48263;SDS011;34086;51.076;13.722;2022-11-20T05:30:31;49.45;;;24.35;;
48263;SDS011;34086;51.076;13.722;2022-11-20T05:31:32;56.67;;;26.77;;
48263;SDS011;34086;51.076;13.722;2022-11-20T05:32:33;52.20;;;26.35;;
48263;SDS011;34086;51.076;13.722;2022-11-20T05:33:34;53.47;;;26.05;;
48263;SDS011;34086;51.076;13.722;2022-11-20T05:34:35;56.13;;;27.17;;
48263;SDS011;34086;51.076;13.722;2022-11-20T05:35:36;54.92;;;26.25;;
48263;SDS011;34086;51.076;13.722;2022-11-20T05:36:37;55.70;;;26.42;;
48263;SDS011;34086;51.076;13.722;2022-11-20T05:37:38;55.40;;;26.77;;
48263;SDS011;34086;51.076;13.722;2022-11-20T05:38:39;56.25;;;27.42;;
48263;SDS011;34086;51.076;13.722;2022-11-20T05:39:40;57.95;;;27.75;;
48263;SDS011;34086;51.076;13.722;2022-11-20T05:40:40;54.85;;;26.70;;
48263;SDS011;34086;51.076;13.722;2022-11-20T05:41:41;56.03;;;27.17;;
48263;SDS011;34086;51.076;13.722;2022-11-20T05:42:42;55.97;;;27.35;;
48263;SDS011;34086;51.076;13.722;2022-11-20T05:43:44;53.70;;;26.85;;
48263;SDS011;34086;51.076;13.722;2022-11-20T05:44:46;54.25;;;26.80;;
48263;SDS011;34086;51.076;13.722;2022-11-20T05:45:53;57.53;;;27.17;;
48263;SDS011;34086;51.076;13.722;2022-11-20T05:46:54;53.17;;;27.10;;
48263;SDS011;34086;51.076;13.722;2022-11-20T05:47:58;54.60;;;25.75;;
48263;SDS011;34086;51.076;13.722;2022-11-20T05:49:00;56.33;;;27.35;;
48263;SDS011;34086;51.076;13.722;2022-11-20T05:50:01;52.72;;;26.77;;
48263;SDS011;34086;51.076;13.722;2022-11-20T05:51:02;55.35;;;26.85;;
48263;SDS011;34086;51.076;13.722;2022-11-20T05:52:04;53.15;;;26.23;;
48263;SDS011;34086;51.076;13.722;2022-11-20T05:53:05;55.47;;;26.75;;
48263;SDS011;34086;51.076;13.722;2022-11-20T05:54:05;55.70;;;26.67;;
48263;SDS011;34086;51.076;13.722;2022-11-20T05:55:06;53.53;;;26.90;;
48263;SDS011;34086;51.076;13.722;2022-11-20T05:56:09;53.88;;;26.02;;
48263;SDS011;34086;51.076;13.722;2022-11-20T05:57:11;51.90;;;25.92;;
48263;SDS011;34086;51.076;13.722;2022-11-20T05:58:12;56.03;;;26.85;;
48263;SDS011;34086;51.076;13.722;2022-11-20T05:59:13;56.25;;;27.17;;
48263;SDS011;34086;51.076;13.722;2022-11-20T06:00:14;53.25;;;25.33;;
48263;SDS011;34086;51.076;13.722;2022-11-20T06:01:22;58.17;;;25.63;;
48263;SDS011;34086;51.076;13.722;2022-11-20T06:02:24;53.28;;;26.25;;
48263;SDS011;34086;51.076;13.722;2022-11-20T06:03:25;52.85;;;26.02;;
48263;SDS011;34086;51.076;13.722;2022-11-20T06:04:25;55.92;;;26.65;;
48263;SDS011;34086;51.076;13.722;2022-11-20T06:05:26;52.88;;;26.10;;
48263;SDS011;34086;51.076;13.722;2022-11-20T06:06:27;53.88;;;25.73;;